sensor_id;sensor_type;location;lat;lon;timestamp;P1;durP1;ratioP1;P2;durP2;ratioP2
28760;SDS011;15917;50.014;8.352;2022-08-19T00:01:21;20.27;;;12.40;;
28760;SDS011;15917;50.014;8.352;2022-08-19T00:03:47;18.33;;;12.13;;
28760;SDS011;15917;50.014;8.352;2022-08-19T00:06:13;25.02;;;12.85;;
28760;SDS011;15917;50.014;8.352;2022-08-19T00:08:39;23.50;;;12.98;;
28760;SDS011;15917;50.014;8.352;2022-08-19T00:11:05;21.27;;;12.25;;
28760;SDS011;15917;50.014;8.352;2022-08-19T00:13:32;20.43;;;12.30;;
28760;SDS011;15917;50.014;8.352;2022-08-19T00:15:58;21.30;;;12.13;;
28760;SDS011;15917;50.014;8.352;2022-08-19T00:18:24;20.83;;;12.60;;
28760;SDS011;15917;50.014;8.352;2022-08-19T00:20:50;22.20;;;11.85;;
28760;SDS011;15917;50.014;8.352;2022-08-19T00:23:16;21.42;;;13.32;;
28760;SDS011;15917;50.014;8.352;2022-08-19T00:25:42;25.77;;;13.98;;
28760;SDS011;15917;50.014;8.352;2022-08-19T00:28:07;25.48;;;13.60;;
28760;SDS011;15917;50.014;8.352;2022-08-19T00:30:33;25.08;;;13.85;;
28760;SDS011;15917;50.014;8.352;2022-08-19T00:32:59;25.83;;;13.70;;
28760;SDS011;15917;50.014;8.352;2022-08-19T00:35:24;23.13;;;14.75;;
28760;SDS011;15917;50.014;8.352;2022-08-19T00:37:52;24.15;;;14.50;;
28760;SDS011;15917;50.014;8.352;2022-08-19T00:40:18;26.08;;;16.17;;
28760;SDS011;15917;50.014;8.352;2022-08-19T00:42:44;26.75;;;16.15;;
28760;SDS011;15917;50.014;8.352;2022-08-19T00:45:12;24.88;;;16.15;;
28760;SDS011;15917;50.014;8.352;2022-08-19T00:47:42;25.33;;;15.98;;
28760;SDS011;15917;50.014;8.352;2022-08-19T00:50:10;28.70;;;16.05;;
28760;SDS011;15917;50.014;8.352;2022-08-19T00:52:41;24.27;;;15.45;;
28760;SDS011;15917;50.014;8.352;2022-08-19T00:55:10;24.63;;;15.45;;
28760;SDS011;15917;50.014;8.352;2022-08-19T00:57:40;30.80;;;16.02;;
28760;SDS011;15917;50.014;8.352;2022-08-19T01:00:11;30.65;;;16.00;;
28760;SDS011;15917;50.014;8.352;2022-08-19T01:02:39;28.25;;;16.63;;
28760;SDS011;15917;50.014;8.352;2022-08-19T01:05:07;28.70;;;16.02;;
28760;SDS011;15917;50.014;8.352;2022-08-19T01:07:35;25.60;;;15.50;;
28760;SDS011;15917;50.014;8.352;2022-08-19T01:10:04;22.65;;;14.93;;
28760;SDS011;15917;50.014;8.352;2022-08-19T01:12:33;26.95;;;16.05;;
28760;SDS011;15917;50.014;8.352;2022-08-19T01:14:59;31.95;;;17.33;;
28760;SDS011;15917;50.014;8.352;2022-08-19T01:17:25;30.30;;;17.25;;
28760;SDS011;15917;50.014;8.352;2022-08-19T01:19:51;28.00;;;15.77;;
28760;SDS011;15917;50.014;8.352;2022-08-19T01:22:19;24.60;;;14.88;;
28760;SDS011;15917;50.014;8.352;2022-08-19T01:25:03;26.02;;;14.77;;
28760;SDS011;15917;50.014;8.352;2022-08-19T01:27:39;27.23;;;15.38;;
28760;SDS011;15917;50.014;8.352;2022-08-19T01:30:07;24.65;;;15.02;;
28760;SDS011;15917;50.014;8.352;2022-08-19T01:32:34;28.75;;;16.15;;
28760;SDS011;15917;50.014;8.352;2022-08-19T01:35:00;25.60;;;14.77;;
28760;SDS011;15917;50.014;8.352;2022-08-19T01:37:27;27.75;;;15.95;;
28760;SDS011;15917;50.014;8.352;2022-08-19T01:39:53;25.10;;;15.48;;
28760;SDS011;15917;50.014;8.352;2022-08-19T01:42:19;28.75;;;15.52;;
28760;SDS011;15917;50.014;8.352;2022-08-19T01:44:46;26.08;;;14.60;;
28760;SDS011;15917;50.014;8.352;2022-08-19T01:47:12;26.42;;;15.88;;
28760;SDS011;15917;50.014;8.352;2022-08-19T01:49:38;22.67;;;14.55;;
28760;SDS011;15917;50.014;8.352;2022-08-19T01:52:04;22.88;;;14.07;;
28760;SDS011;15917;50.014;8.352;2022-08-19T01:54:30;27.92;;;14.98;;
28760;SDS011;15917;50.014;8.352;2022-08-19T01:57:05;25.63;;;14.23;;
28760;SDS011;15917;50.014;8.352;2022-08-19T01:59:33;23.52;;;14.27;;
28760;SDS011;15917;50.014;8.352;2022-08-19T02:02:01;26.73;;;15.32;;
28760;SDS011;15917;50.014;8.352;2022-08-19T02:04:32;22.42;;;14.55;;
28760;SDS011;15917;50.014;8.352;2022-08-19T02:06:59;26.90;;;14.07;;
28760;SDS011;15917;50.014;8.352;2022-08-19T02:09:25;23.80;;;14.32;;
28760;SDS011;15917;50.014;8.352;2022-08-19T02:11:51;20.17;;;12.50;;
28760;SDS011;15917;50.014;8.352;2022-08-19T02:14:16;22.27;;;14.68;;
28760;SDS011;15917;50.014;8.352;2022-08-19T02:16:42;23.83;;;12.57;;
28760;SDS011;15917;50.014;8.352;2022-08-19T02:19:08;21.02;;;13.07;;
28760;SDS011;15917;50.014;8.352;2022-08-19T02:21:33;24.98;;;12.20;;
28760;SDS011;15917;50.014;8.352;2022-08-19T02:24:00;20.42;;;12.02;;
28760;SDS011;15917;50.014;8.352;2022-08-19T02:26:26;24.67;;;13.73;;
28760;SDS011;15917;50.014;8.352;2022-08-19T02:28:52;22.35;;;12.32;;
28760;SDS011;15917;50.014;8.352;2022-08-19T02:31:20;18.80;;;12.03;;
28760;SDS011;15917;50.014;8.352;2022-08-19T02:33:47;17.35;;;12.50;;
28760;SDS011;15917;50.014;8.352;2022-08-19T02:36:13;25.08;;;12.75;;
28760;SDS011;15917;50.014;8.352;2022-08-19T02:38:41;25.00;;;13.35;;
28760;SDS011;15917;50.014;8.352;2022-08-19T02:41:17;23.15;;;13.90;;
28760;SDS011;15917;50.014;8.352;2022-08-19T02:43:45;23.70;;;14.23;;
28760;SDS011;15917;50.014;8.352;2022-08-19T02:48:52;19.90;;;12.10;;
28760;SDS011;15917;50.014;8.352;2022-08-19T02:51:21;23.85;;;12.38;;
28760;SDS011;15917;50.014;8.352;2022-08-19T02:53:49;17.40;;;12.13;;
28760;SDS011;15917;50.014;8.352;2022-08-19T02:56:14;20.90;;;12.70;;
28760;SDS011;15917;50.014;8.352;2022-08-19T02:58:40;19.77;;;12.68;;
28760;SDS011;15917;50.014;8.352;2022-08-19T03:01:06;21.50;;;12.52;;
28760;SDS011;15917;50.014;8.352;2022-08-19T03:03:32;20.60;;;13.32;;
28760;SDS011;15917;50.014;8.352;2022-08-19T03:06:09;19.48;;;12.27;;
28760;SDS011;15917;50.014;8.352;2022-08-19T03:08:39;21.40;;;12.60;;
28760;SDS011;15917;50.014;8.352;2022-08-19T03:11:06;18.52;;;12.25;;
28760;SDS011;15917;50.014;8.352;2022-08-19T03:13:37;21.60;;;12.68;;
28760;SDS011;15917;50.014;8.352;2022-08-19T03:16:04;18.20;;;12.02;;
28760;SDS011;15917;50.014;8.352;2022-08-19T03:18:30;20.67;;;12.50;;
28760;SDS011;15917;50.014;8.352;2022-08-19T03:20:56;23.48;;;12.90;;
28760;SDS011;15917;50.014;8.352;2022-08-19T03:23:22;19.83;;;12.48;;
28760;SDS011;15917;50.014;8.352;2022-08-19T03:25:48;19.40;;;12.13;;
28760;SDS011;15917;50.014;8.352;2022-08-19T03:28:16;20.10;;;12.85;;
28760;SDS011;15917;50.014;8.352;2022-08-19T03:30:42;19.52;;;11.88;;
28760;SDS011;15917;50.014;8.352;2022-08-19T03:33:21;15.75;;;11.57;;
28760;SDS011;15917;50.014;8.352;2022-08-19T03:35:47;17.88;;;12.27;;
28760;SDS011;15917;50.014;8.352;2022-08-19T03:38:24;19.10;;;11.57;;
28760;SDS011;15917;50.014;8.352;2022-08-19T03:40:49;20.58;;;13.15;;
28760;SDS011;15917;50.014;8.352;2022-08-19T03:43:15;20.33;;;11.93;;
28760;SDS011;15917;50.014;8.352;2022-08-19T03:45:42;23.85;;;12.60;;
28760;SDS011;15917;50.014;8.352;2022-08-19T03:48:08;15.80;;;10.60;;
28760;SDS011;15917;50.014;8.352;2022-08-19T03:50:38;19.50;;;11.30;;
28760;SDS011;15917;50.014;8.352;2022-08-19T03:53:05;16.95;;;10.93;;
28760;SDS011;15917;50.014;8.352;2022-08-19T03:55:32;16.40;;;10.27;;
28760;SDS011;15917;50.014;8.352;2022-08-19T03:57:58;17.83;;;10.98;;
28760;SDS011;15917;50.014;8.352;2022-08-19T04:00:24;17.05;;;11.27;;
28760;SDS011;15917;50.014;8.352;2022-08-19T04:02:49;15.63;;;10.10;;
28760;SDS011;15917;50.014;8.352;2022-08-19T04:05:15;17.55;;;11.07;;
28760;SDS011;15917;50.014;8.352;2022-08-19T04:07:40;17.30;;;11.38;;
28760;SDS011;15917;50.014;8.352;2022-08-19T04:10:06;18.25;;;12.05;;
28760;SDS011;15917;50.014;8.352;2022-08-19T04:12:32;18.63;;;11.25;;
28760;SDS011;15917;50.014;8.352;2022-08-19T04:14:57;16.77;;;11.82;;
28760;SDS011;15917;50.014;8.352;2022-08-19T04:17:23;15.88;;;11.13;;
28760;SDS011;15917;50.014;8.352;2022-08-19T04:19:49;19.55;;;12.18;;
28760;SDS011;15917;50.014;8.352;2022-08-19T04:22:14;15.70;;;10.50;;
28760;SDS011;15917;50.014;8.352;2022-08-19T04:24:40;16.10;;;10.40;;
28760;SDS011;15917;50.014;8.352;2022-08-19T04:27:06;24.52;;;10.63;;
28760;SDS011;15917;50.014;8.352;2022-08-19T04:29:32;16.10;;;10.68;;
28760;SDS011;15917;50.014;8.352;2022-08-19T04:31:59;25.13;;;10.23;;
28760;SDS011;15917;50.014;8.352;2022-08-19T04:34:26;17.75;;;11.05;;
28760;SDS011;15917;50.014;8.352;2022-08-19T04:39:21;14.70;;;9.82;;
28760;SDS011;15917;50.014;8.352;2022-08-19T04:42:09;18.30;;;11.48;;
28760;SDS011;15917;50.014;8.352;2022-08-19T04:44:54;19.02;;;11.18;;
28760;SDS011;15917;50.014;8.352;2022-08-19T04:47:19;17.45;;;10.75;;
28760;SDS011;15917;50.014;8.352;2022-08-19T04:49:45;18.05;;;9.90;;
28760;SDS011;15917;50.014;8.352;2022-08-19T04:52:11;20.27;;;11.50;;
28760;SDS011;15917;50.014;8.352;2022-08-19T04:54:37;18.08;;;11.05;;
28760;SDS011;15917;50.014;8.352;2022-08-19T04:57:03;15.18;;;9.85;;
28760;SDS011;15917;50.014;8.352;2022-08-19T04:59:31;17.13;;;10.75;;
28760;SDS011;15917;50.014;8.352;2022-08-19T05:01:58;15.48;;;10.68;;
28760;SDS011;15917;50.014;8.352;2022-08-19T05:04:24;16.23;;;10.05;;
28760;SDS011;15917;50.014;8.352;2022-08-19T05:06:50;19.27;;;11.10;;
28760;SDS011;15917;50.014;8.352;2022-08-19T05:09:17;16.40;;;10.20;;
28760;SDS011;15917;50.014;8.352;2022-08-19T05:11:44;13.20;;;9.90;;
28760;SDS011;15917;50.014;8.352;2022-08-19T05:14:10;14.05;;;10.20;;
28760;SDS011;15917;50.014;8.352;2022-08-19T05:16:38;16.00;;;10.98;;
28760;SDS011;15917;50.014;8.352;2022-08-19T05:19:04;19.27;;;10.52;;
28760;SDS011;15917;50.014;8.352;2022-08-19T05:21:48;20.10;;;10.20;;
28760;SDS011;15917;50.014;8.352;2022-08-19T05:24:32;16.13;;;11.25;;
28760;SDS011;15917;50.014;8.352;2022-08-19T05:26:59;15.68;;;10.65;;
28760;SDS011;15917;50.014;8.352;2022-08-19T05:29:28;14.50;;;10.90;;
28760;SDS011;15917;50.014;8.352;2022-08-19T05:31:54;20.55;;;10.90;;
28760;SDS011;15917;50.014;8.352;2022-08-19T05:34:22;13.73;;;10.07;;
28760;SDS011;15917;50.014;8.352;2022-08-19T05:36:52;15.00;;;10.20;;
28760;SDS011;15917;50.014;8.352;2022-08-19T05:39:23;16.40;;;10.50;;
28760;SDS011;15917;50.014;8.352;2022-08-19T05:41:54;15.52;;;9.45;;
28760;SDS011;15917;50.014;8.352;2022-08-19T05:44:23;18.00;;;10.07;;
28760;SDS011;15917;50.014;8.352;2022-08-19T05:46:52;13.50;;;9.43;;
28760;SDS011;15917;50.014;8.352;2022-08-19T05:49:19;16.90;;;10.57;;
28760;SDS011;15917;50.014;8.352;2022-08-19T05:51:47;14.43;;;9.27;;
28760;SDS011;15917;50.014;8.352;2022-08-19T05:54:13;16.38;;;9.98;;
28760;SDS011;15917;50.014;8.352;2022-08-19T05:56:40;15.25;;;9.02;;
28760;SDS011;15917;50.014;8.352;2022-08-19T05:59:12;17.58;;;10.65;;
28760;SDS011;15917;50.014;8.352;2022-08-19T06:01:40;17.00;;;10.15;;
28760;SDS011;15917;50.014;8.352;2022-08-19T06:04:07;16.73;;;10.38;;
28760;SDS011;15917;50.014;8.352;2022-08-19T06:06:33;17.65;;;9.90;;
28760;SDS011;15917;50.014;8.352;2022-08-19T06:09:03;16.30;;;9.40;;
28760;SDS011;15917;50.014;8.352;2022-08-19T06:11:34;12.93;;;10.35;;
28760;SDS011;15917;50.014;8.352;2022-08-19T06:14:05;15.63;;;10.75;;
28760;SDS011;15917;50.014;8.352;2022-08-19T06:16:37;28.40;;;12.73;;
28760;SDS011;15917;50.014;8.352;2022-08-19T06:19:09;16.42;;;9.60;;
28760;SDS011;15917;50.014;8.352;2022-08-19T06:21:40;19.85;;;11.27;;
28760;SDS011;15917;50.014;8.352;2022-08-19T06:24:07;18.23;;;12.27;;
28760;SDS011;15917;50.014;8.352;2022-08-19T06:29:02;19.67;;;11.68;;
28760;SDS011;15917;50.014;8.352;2022-08-19T06:31:31;21.20;;;11.80;;
28760;SDS011;15917;50.014;8.352;2022-08-19T06:34:01;22.80;;;13.00;;
28760;SDS011;15917;50.014;8.352;2022-08-19T06:36:31;19.05;;;12.50;;
28760;SDS011;15917;50.014;8.352;2022-08-19T06:39:07;16.50;;;10.57;;
28760;SDS011;15917;50.014;8.352;2022-08-19T06:41:36;22.08;;;11.18;;
28760;SDS011;15917;50.014;8.352;2022-08-19T06:44:15;22.25;;;10.57;;
28760;SDS011;15917;50.014;8.352;2022-08-19T06:46:42;18.10;;;10.20;;
28760;SDS011;15917;50.014;8.352;2022-08-19T06:49:08;20.73;;;10.70;;
28760;SDS011;15917;50.014;8.352;2022-08-19T06:51:39;15.63;;;10.95;;
28760;SDS011;15917;50.014;8.352;2022-08-19T06:54:09;19.70;;;9.43;;
28760;SDS011;15917;50.014;8.352;2022-08-19T06:56:36;21.05;;;11.60;;
28760;SDS011;15917;50.014;8.352;2022-08-19T07:01:30;15.52;;;9.77;;
28760;SDS011;15917;50.014;8.352;2022-08-19T07:03:59;14.38;;;10.23;;
28760;SDS011;15917;50.014;8.352;2022-08-19T07:08:52;18.75;;;9.32;;
28760;SDS011;15917;50.014;8.352;2022-08-19T07:11:18;15.65;;;9.30;;
28760;SDS011;15917;50.014;8.352;2022-08-19T07:13:44;13.55;;;8.15;;
28760;SDS011;15917;50.014;8.352;2022-08-19T07:16:16;13.02;;;8.43;;
28760;SDS011;15917;50.014;8.352;2022-08-19T07:18:45;10.75;;;6.93;;
28760;SDS011;15917;50.014;8.352;2022-08-19T07:21:22;13.98;;;8.07;;
28760;SDS011;15917;50.014;8.352;2022-08-19T07:23:54;16.33;;;8.85;;
28760;SDS011;15917;50.014;8.352;2022-08-19T07:28:54;13.38;;;7.97;;
28760;SDS011;15917;50.014;8.352;2022-08-19T07:31:22;15.07;;;8.23;;
28760;SDS011;15917;50.014;8.352;2022-08-19T07:33:50;13.27;;;8.07;;
28760;SDS011;15917;50.014;8.352;2022-08-19T07:36:18;17.10;;;8.50;;
28760;SDS011;15917;50.014;8.352;2022-08-19T07:38:48;14.80;;;7.25;;
28760;SDS011;15917;50.014;8.352;2022-08-19T07:41:18;11.15;;;7.45;;
28760;SDS011;15917;50.014;8.352;2022-08-19T07:43:46;13.88;;;7.70;;
28760;SDS011;15917;50.014;8.352;2022-08-19T07:46:12;13.63;;;9.13;;
28760;SDS011;15917;50.014;8.352;2022-08-19T07:48:39;21.52;;;11.38;;
28760;SDS011;15917;50.014;8.352;2022-08-19T07:51:07;21.35;;;10.73;;
28760;SDS011;15917;50.014;8.352;2022-08-19T07:53:35;21.48;;;10.27;;
28760;SDS011;15917;50.014;8.352;2022-08-19T07:56:03;11.68;;;8.88;;
28760;SDS011;15917;50.014;8.352;2022-08-19T07:58:30;13.60;;;8.95;;
28760;SDS011;15917;50.014;8.352;2022-08-19T08:00:58;14.98;;;7.63;;
28760;SDS011;15917;50.014;8.352;2022-08-19T08:03:24;16.85;;;10.13;;
28760;SDS011;15917;50.014;8.352;2022-08-19T08:06:11;16.33;;;9.82;;
28760;SDS011;15917;50.014;8.352;2022-08-19T08:08:56;20.05;;;10.73;;
28760;SDS011;15917;50.014;8.352;2022-08-19T08:11:47;18.95;;;9.70;;
28760;SDS011;15917;50.014;8.352;2022-08-19T08:14:22;16.90;;;10.00;;
28760;SDS011;15917;50.014;8.352;2022-08-19T08:16:55;17.85;;;10.60;;
28760;SDS011;15917;50.014;8.352;2022-08-19T08:19:21;15.68;;;9.00;;
28760;SDS011;15917;50.014;8.352;2022-08-19T08:21:49;13.38;;;7.70;;
28760;SDS011;15917;50.014;8.352;2022-08-19T08:24:15;14.57;;;8.57;;
28760;SDS011;15917;50.014;8.352;2022-08-19T08:26:42;16.52;;;8.60;;
28760;SDS011;15917;50.014;8.352;2022-08-19T08:29:09;10.02;;;7.03;;
28760;SDS011;15917;50.014;8.352;2022-08-19T08:31:36;15.32;;;8.32;;
28760;SDS011;15917;50.014;8.352;2022-08-19T08:34:02;13.13;;;9.57;;
28760;SDS011;15917;50.014;8.352;2022-08-19T08:36:28;13.68;;;9.30;;
28760;SDS011;15917;50.014;8.352;2022-08-19T08:38:54;12.80;;;8.73;;
28760;SDS011;15917;50.014;8.352;2022-08-19T08:43:56;17.20;;;9.50;;
28760;SDS011;15917;50.014;8.352;2022-08-19T08:46:24;9.90;;;7.20;;
28760;SDS011;15917;50.014;8.352;2022-08-19T08:51:46;18.15;;;12.77;;
28760;SDS011;15917;50.014;8.352;2022-08-19T08:54:20;16.77;;;11.48;;
28760;SDS011;15917;50.014;8.352;2022-08-19T08:56:51;20.55;;;13.98;;
28760;SDS011;15917;50.014;8.352;2022-08-19T08:59:26;15.20;;;12.20;;
28760;SDS011;15917;50.014;8.352;2022-08-19T09:01:57;19.65;;;10.90;;
28760;SDS011;15917;50.014;8.352;2022-08-19T09:04:23;17.52;;;10.85;;
28760;SDS011;15917;50.014;8.352;2022-08-19T09:07:14;18.75;;;10.38;;
28760;SDS011;15917;50.014;8.352;2022-08-19T09:09:38;14.07;;;9.93;;
28760;SDS011;15917;50.014;8.352;2022-08-19T09:12:10;18.58;;;10.32;;
28760;SDS011;15917;50.014;8.352;2022-08-19T09:14:49;17.27;;;12.48;;
28760;SDS011;15917;50.014;8.352;2022-08-19T09:17:16;16.63;;;10.50;;
28760;SDS011;15917;50.014;8.352;2022-08-19T09:20:04;17.83;;;13.30;;
28760;SDS011;15917;50.014;8.352;2022-08-19T09:22:39;17.95;;;11.90;;
28760;SDS011;15917;50.014;8.352;2022-08-19T09:25:06;18.00;;;12.50;;
28760;SDS011;15917;50.014;8.352;2022-08-19T09:27:35;20.58;;;13.45;;
28760;SDS011;15917;50.014;8.352;2022-08-19T09:30:03;20.55;;;13.02;;
28760;SDS011;15917;50.014;8.352;2022-08-19T09:32:29;25.40;;;12.33;;
28760;SDS011;15917;50.014;8.352;2022-08-19T09:34:55;18.48;;;12.23;;
28760;SDS011;15917;50.014;8.352;2022-08-19T09:37:23;17.35;;;10.75;;
28760;SDS011;15917;50.014;8.352;2022-08-19T09:39:49;17.23;;;11.82;;
28760;SDS011;15917;50.014;8.352;2022-08-19T09:42:16;17.15;;;11.85;;
28760;SDS011;15917;50.014;8.352;2022-08-19T09:44:42;20.88;;;11.73;;
28760;SDS011;15917;50.014;8.352;2022-08-19T09:47:08;21.38;;;14.27;;
28760;SDS011;15917;50.014;8.352;2022-08-19T09:49:36;18.23;;;12.98;;
28760;SDS011;15917;50.014;8.352;2022-08-19T09:52:03;19.67;;;14.15;;
28760;SDS011;15917;50.014;8.352;2022-08-19T09:54:30;26.70;;;15.93;;
28760;SDS011;15917;50.014;8.352;2022-08-19T09:56:58;18.17;;;13.63;;
28760;SDS011;15917;50.014;8.352;2022-08-19T09:59:25;24.92;;;15.07;;
28760;SDS011;15917;50.014;8.352;2022-08-19T10:01:51;17.33;;;13.90;;
28760;SDS011;15917;50.014;8.352;2022-08-19T10:04:17;21.33;;;14.55;;
28760;SDS011;15917;50.014;8.352;2022-08-19T10:06:43;20.63;;;15.30;;
28760;SDS011;15917;50.014;8.352;2022-08-19T10:09:09;20.70;;;13.32;;
28760;SDS011;15917;50.014;8.352;2022-08-19T10:11:36;18.83;;;14.07;;
28760;SDS011;15917;50.014;8.352;2022-08-19T10:14:05;21.08;;;14.77;;
28760;SDS011;15917;50.014;8.352;2022-08-19T10:16:31;17.65;;;13.15;;
28760;SDS011;15917;50.014;8.352;2022-08-19T10:18:57;22.38;;;12.95;;
28760;SDS011;15917;50.014;8.352;2022-08-19T10:21:27;17.40;;;12.32;;
28760;SDS011;15917;50.014;8.352;2022-08-19T10:23:56;19.20;;;13.20;;
28760;SDS011;15917;50.014;8.352;2022-08-19T10:26:28;16.13;;;10.73;;
28760;SDS011;15917;50.014;8.352;2022-08-19T10:28:55;14.07;;;10.60;;
28760;SDS011;15917;50.014;8.352;2022-08-19T10:31:23;12.43;;;10.25;;
28760;SDS011;15917;50.014;8.352;2022-08-19T10:33:50;11.00;;;9.10;;
28760;SDS011;15917;50.014;8.352;2022-08-19T10:36:23;11.20;;;9.00;;
28760;SDS011;15917;50.014;8.352;2022-08-19T10:38:51;14.32;;;10.27;;
28760;SDS011;15917;50.014;8.352;2022-08-19T10:41:19;12.82;;;9.15;;
28760;SDS011;15917;50.014;8.352;2022-08-19T10:43:49;13.95;;;9.02;;
28760;SDS011;15917;50.014;8.352;2022-08-19T10:46:17;11.02;;;8.45;;
28760;SDS011;15917;50.014;8.352;2022-08-19T10:48:43;9.50;;;6.85;;
28760;SDS011;15917;50.014;8.352;2022-08-19T10:51:10;8.65;;;6.43;;
28760;SDS011;15917;50.014;8.352;2022-08-19T10:53:55;13.40;;;7.45;;
28760;SDS011;15917;50.014;8.352;2022-08-19T10:56:22;14.10;;;8.20;;
28760;SDS011;15917;50.014;8.352;2022-08-19T10:59:06;9.90;;;6.47;;
28760;SDS011;15917;50.014;8.352;2022-08-19T11:01:32;9.00;;;6.15;;
28760;SDS011;15917;50.014;8.352;2022-08-19T11:04:00;10.98;;;5.90;;
28760;SDS011;15917;50.014;8.352;2022-08-19T11:06:28;9.27;;;4.72;;
28760;SDS011;15917;50.014;8.352;2022-08-19T11:08:55;4.93;;;4.38;;
28760;SDS011;15917;50.014;8.352;2022-08-19T11:11:21;14.05;;;5.20;;
28760;SDS011;15917;50.014;8.352;2022-08-19T11:13:47;11.70;;;5.03;;
28760;SDS011;15917;50.014;8.352;2022-08-19T11:16:25;8.43;;;4.72;;
28760;SDS011;15917;50.014;8.352;2022-08-19T11:18:56;6.15;;;4.53;;
28760;SDS011;15917;50.014;8.352;2022-08-19T11:23:56;6.13;;;3.92;;
28760;SDS011;15917;50.014;8.352;2022-08-19T11:26:23;7.97;;;4.78;;
28760;SDS011;15917;50.014;8.352;2022-08-19T11:28:50;4.93;;;4.32;;
28760;SDS011;15917;50.014;8.352;2022-08-19T11:31:21;7.75;;;4.47;;
28760;SDS011;15917;50.014;8.352;2022-08-19T11:33:49;8.88;;;4.55;;
28760;SDS011;15917;50.014;8.352;2022-08-19T11:36:20;7.55;;;4.78;;
28760;SDS011;15917;50.014;8.352;2022-08-19T11:38:49;9.40;;;5.13;;
28760;SDS011;15917;50.014;8.352;2022-08-19T11:41:16;6.70;;;5.18;;
28760;SDS011;15917;50.014;8.352;2022-08-19T11:43:44;7.18;;;5.05;;
28760;SDS011;15917;50.014;8.352;2022-08-19T11:46:12;6.97;;;4.47;;
28760;SDS011;15917;50.014;8.352;2022-08-19T11:48:39;5.90;;;4.50;;
28760;SDS011;15917;50.014;8.352;2022-08-19T11:51:06;8.70;;;4.50;;
28760;SDS011;15917;50.014;8.352;2022-08-19T11:53:35;8.88;;;4.45;;
28760;SDS011;15917;50.014;8.352;2022-08-19T11:56:01;10.30;;;4.00;;
28760;SDS011;15917;50.014;8.352;2022-08-19T11:58:28;4.20;;;3.80;;
28760;SDS011;15917;50.014;8.352;2022-08-19T12:00:55;4.07;;;3.67;;
28760;SDS011;15917;50.014;8.352;2022-08-19T12:03:21;4.38;;;3.33;;
28760;SDS011;15917;50.014;8.352;2022-08-19T12:05:47;3.55;;;3.25;;
28760;SDS011;15917;50.014;8.352;2022-08-19T12:08:14;7.55;;;3.25;;
28760;SDS011;15917;50.014;8.352;2022-08-19T12:10:40;5.18;;;4.35;;
28760;SDS011;15917;50.014;8.352;2022-08-19T12:13:07;8.65;;;4.15;;
28760;SDS011;15917;50.014;8.352;2022-08-19T12:15:37;3.70;;;3.30;;
28760;SDS011;15917;50.014;8.352;2022-08-19T12:18:07;6.95;;;3.60;;
28760;SDS011;15917;50.014;8.352;2022-08-19T12:20:35;5.03;;;3.13;;
28760;SDS011;15917;50.014;8.352;2022-08-19T12:23:02;6.35;;;3.03;;
28760;SDS011;15917;50.014;8.352;2022-08-19T12:25:28;4.72;;;3.15;;
28760;SDS011;15917;50.014;8.352;2022-08-19T12:27:54;3.70;;;3.00;;
28760;SDS011;15917;50.014;8.352;2022-08-19T12:30:20;4.22;;;3.15;;
28760;SDS011;15917;50.014;8.352;2022-08-19T12:32:45;5.22;;;3.17;;
28760;SDS011;15917;50.014;8.352;2022-08-19T12:35:11;5.60;;;3.13;;
28760;SDS011;15917;50.014;8.352;2022-08-19T12:37:37;3.97;;;3.30;;
28760;SDS011;15917;50.014;8.352;2022-08-19T12:40:04;3.13;;;2.58;;
28760;SDS011;15917;50.014;8.352;2022-08-19T12:42:30;3.47;;;2.22;;
28760;SDS011;15917;50.014;8.352;2022-08-19T12:44:55;3.22;;;2.92;;
28760;SDS011;15917;50.014;8.352;2022-08-19T12:47:21;3.90;;;3.30;;
28760;SDS011;15917;50.014;8.352;2022-08-19T12:49:48;5.05;;;3.17;;
28760;SDS011;15917;50.014;8.352;2022-08-19T12:52:14;3.73;;;3.20;;
28760;SDS011;15917;50.014;8.352;2022-08-19T12:54:41;5.28;;;3.47;;
28760;SDS011;15917;50.014;8.352;2022-08-19T12:57:08;3.22;;;2.92;;
28760;SDS011;15917;50.014;8.352;2022-08-19T12:59:35;4.47;;;3.10;;
28760;SDS011;15917;50.014;8.352;2022-08-19T13:02:02;3.20;;;2.40;;
28760;SDS011;15917;50.014;8.352;2022-08-19T13:04:31;9.82;;;3.33;;
28760;SDS011;15917;50.014;8.352;2022-08-19T13:07:00;7.80;;;3.40;;
28760;SDS011;15917;50.014;8.352;2022-08-19T13:09:25;3.15;;;2.85;;
28760;SDS011;15917;50.014;8.352;2022-08-19T13:11:51;11.30;;;7.10;;
28760;SDS011;15917;50.014;8.352;2022-08-19T13:14:17;10.13;;;6.55;;
28760;SDS011;15917;50.014;8.352;2022-08-19T13:16:43;5.27;;;4.00;;
28760;SDS011;15917;50.014;8.352;2022-08-19T13:19:09;3.63;;;2.55;;
28760;SDS011;15917;50.014;8.352;2022-08-19T13:21:35;3.70;;;2.65;;
28760;SDS011;15917;50.014;8.352;2022-08-19T13:24:01;4.38;;;2.92;;
28760;SDS011;15917;50.014;8.352;2022-08-19T13:26:27;5.05;;;2.50;;
28760;SDS011;15917;50.014;8.352;2022-08-19T13:28:53;6.45;;;3.08;;
28760;SDS011;15917;50.014;8.352;2022-08-19T13:31:38;6.22;;;3.97;;
28760;SDS011;15917;50.014;8.352;2022-08-19T13:34:26;3.73;;;3.23;;
28760;SDS011;15917;50.014;8.352;2022-08-19T13:36:55;8.18;;;3.17;;
28760;SDS011;15917;50.014;8.352;2022-08-19T13:39:20;8.55;;;3.40;;
28760;SDS011;15917;50.014;8.352;2022-08-19T13:41:48;7.38;;;3.30;;
28760;SDS011;15917;50.014;8.352;2022-08-19T13:44:15;5.13;;;3.97;;
28760;SDS011;15917;50.014;8.352;2022-08-19T13:46:43;6.85;;;3.95;;
28760;SDS011;15917;50.014;8.352;2022-08-19T13:49:09;4.82;;;3.92;;
28760;SDS011;15917;50.014;8.352;2022-08-19T13:51:37;6.85;;;3.60;;
28760;SDS011;15917;50.014;8.352;2022-08-19T13:54:04;4.95;;;3.15;;
28760;SDS011;15917;50.014;8.352;2022-08-19T13:56:31;5.35;;;3.97;;
28760;SDS011;15917;50.014;8.352;2022-08-19T13:58:57;13.55;;;4.15;;
28760;SDS011;15917;50.014;8.352;2022-08-19T14:01:22;5.38;;;4.10;;
28760;SDS011;15917;50.014;8.352;2022-08-19T14:03:49;4.22;;;3.88;;
28760;SDS011;15917;50.014;8.352;2022-08-19T14:06:14;7.60;;;4.38;;
28760;SDS011;15917;50.014;8.352;2022-08-19T14:08:42;6.68;;;4.00;;
28760;SDS011;15917;50.014;8.352;2022-08-19T14:11:08;4.60;;;4.03;;
28760;SDS011;15917;50.014;8.352;2022-08-19T14:13:35;5.90;;;3.42;;
28760;SDS011;15917;50.014;8.352;2022-08-19T14:16:00;5.85;;;3.83;;
28760;SDS011;15917;50.014;8.352;2022-08-19T14:18:31;6.15;;;4.78;;
28760;SDS011;15917;50.014;8.352;2022-08-19T14:20:57;5.88;;;4.60;;
28760;SDS011;15917;50.014;8.352;2022-08-19T14:23:22;7.47;;;4.28;;
28760;SDS011;15917;50.014;8.352;2022-08-19T14:25:48;7.05;;;4.70;;
28760;SDS011;15917;50.014;8.352;2022-08-19T14:28:14;3.95;;;3.50;;
28760;SDS011;15917;50.014;8.352;2022-08-19T14:30:39;6.18;;;3.90;;
28760;SDS011;15917;50.014;8.352;2022-08-19T14:33:05;5.43;;;3.88;;
28760;SDS011;15917;50.014;8.352;2022-08-19T14:35:32;5.72;;;3.95;;
28760;SDS011;15917;50.014;8.352;2022-08-19T14:40:26;4.97;;;3.72;;
28760;SDS011;15917;50.014;8.352;2022-08-19T14:42:54;5.43;;;3.30;;
28760;SDS011;15917;50.014;8.352;2022-08-19T14:45:24;4.95;;;4.20;;
28760;SDS011;15917;50.014;8.352;2022-08-19T14:50:17;3.60;;;3.30;;
28760;SDS011;15917;50.014;8.352;2022-08-19T14:52:48;4.32;;;3.50;;
28760;SDS011;15917;50.014;8.352;2022-08-19T14:55:15;3.92;;;3.10;;
28760;SDS011;15917;50.014;8.352;2022-08-19T14:57:42;6.18;;;3.75;;
28760;SDS011;15917;50.014;8.352;2022-08-19T15:00:08;7.80;;;3.50;;
28760;SDS011;15917;50.014;8.352;2022-08-19T15:02:38;4.28;;;3.28;;
28760;SDS011;15917;50.014;8.352;2022-08-19T15:05:05;5.80;;;3.60;;